Time;durP1;ratioP1;P1;durP2;ratioP2;P2;SDS_P1;SDS_P2;PMS_P1;PMS_P2;Temp;Humidity;BMP_temperature;BMP_pressure;BME280_temperature;BME280_humidity;BME280_pressure;Samples;Min_cycle;Max_cycle;Signal;HPM_P1;HPM_P2
2023/09/18 00:00:21;;;;;;;10.68;8.57;;;;;;;18.24;100.00;100518.31;4953949;28;20475;-81
2023/09/18 00:02:46;;;;;;;12.18;9.52;;;;;;;18.23;100.00;100516.63;4943486;28;20371;-81
2023/09/18 00:05:15;;;;;;;9.88;8.57;;;;;;;18.24;100.00;100504.28;4943463;29;20034;-81
2023/09/18 00:07:43;;;;;;;11.85;9.00;;;;;;;18.23;100.00;100497.31;4949517;29;20030;-81
2023/09/18 00:10:12;;;;;;;12.05;8.85;;;;;;;18.21;100.00;100486.91;4953749;28;20027;-81
2023/09/18 00:12:38;;;;;;;15.55;8.77;;;;;;;18.19;100.00;100488.78;4945383;28;20082;-80
2023/09/18 00:15:05;;;;;;;11.13;8.85;;;;;;;18.18;100.00;100492.34;4941961;29;20130;-81
2023/09/18 00:17:30;;;;;;;10.52;8.52;;;;;;;18.17;100.00;100488.03;4949233;28;20031;-81
2023/09/18 00:19:55;;;;;;;12.77;8.82;;;;;;;18.16;100.00;100481.06;4945940;29;20046;-81
2023/09/18 00:22:21;;;;;;;10.18;8.35;;;;;;;18.15;100.00;100474.13;4943778;29;20471;-81
2023/09/18 00:24:46;;;;;;;11.80;8.70;;;;;;;18.15;100.00;100476.75;4944089;29;20023;-81
2023/09/18 00:27:11;;;;;;;10.32;8.43;;;;;;;18.14;100.00;100468.03;4945415;29;20031;-80
2023/09/18 00:29:37;;;;;;;11.65;8.82;;;;;;;18.14;100.00;100460.13;4942124;29;20031;-81
2023/09/18 00:32:02;;;;;;;11.20;8.60;;;;;;;18.13;100.00;100454.94;4950681;28;20483;-81
2023/09/18 00:34:29;;;;;;;12.30;8.75;;;;;;;18.12;100.00;100451.47;4946649;29;20082;-81
2023/09/18 00:36:54;;;;;;;10.55;8.93;;;;;;;18.11;100.00;100446.28;4940505;29;20074;-81
2023/09/18 00:39:20;;;;;;;11.45;8.57;;;;;;;18.12;100.00;100442.72;4943099;29;20451;-80
2023/09/18 00:41:49;;;;;;;11.45;9.00;;;;;;;18.12;100.00;100440.94;4950425;28;20034;-81
2023/09/18 00:44:14;;;;;;;9.32;8.32;;;;;;;18.12;100.00;100437.44;4952396;28;20039;-81
2023/09/18 00:46:39;;;;;;;9.57;8.57;;;;;;;18.10;100.00;100437.56;4953248;28;20019;-81
2023/09/18 00:49:05;;;;;;;10.73;8.95;;;;;;;18.11;100.00;100427.88;4947262;29;20552;-81
2023/09/18 00:51:30;;;;;;;10.10;8.57;;;;;;;18.11;100.00;100418.19;4943198;29;20024;-80
2023/09/18 00:53:56;;;;;;;12.02;9.07;;;;;;;18.10;100.00;100418.31;4939651;29;20027;-81
2023/09/18 00:56:21;;;;;;;11.98;9.45;;;;;;;18.10;100.00;100419.13;4942422;29;20046;-81
2023/09/18 00:58:47;;;;;;;11.18;8.75;;;;;;;18.11;100.00;100415.56;4939609;29;20102;-81
2023/09/18 01:01:16;;;;;;;11.68;8.25;;;;;;;18.12;100.00;100408.50;4936693;29;20151;-81
2023/09/18 01:03:41;;;;;;;10.80;8.13;;;;;;;18.12;100.00;100409.34;4936296;29;20114;-81
2023/09/18 01:06:06;;;;;;;11.68;8.68;;;;;;;18.12;100.00;100401.47;4940308;29;20122;-81
2023/09/18 01:08:32;;;;;;;10.52;8.30;;;;;;;18.14;100.00;100396.94;4943302;29;20038;-81
2023/09/18 01:11:25;;;;;;;11.02;8.75;;;;;;;18.16;100.00;100379.25;4946957;29;20031;-81
2023/09/18 01:14:09;;;;;;;9.65;8.10;;;;;;;18.18;100.00;100364.22;4942710;29;20042;-81
2023/09/18 01:16:50;;;;;;;9.68;7.65;;;;;;;18.19;100.00;100365.03;4946523;28;20074;-81
2023/09/18 01:19:16;;;;;;;13.55;8.57;;;;;;;18.19;100.00;100367.69;4948308;29;20031;-81
2023/09/18 01:21:41;;;;;;;11.70;8.52;;;;;;;18.20;100.00;100359.66;4951015;28;20122;-81
2023/09/18 01:24:06;;;;;;;11.13;8.25;;;;;;;18.21;100.00;100360.53;4951566;28;20049;-81
2023/09/18 01:26:31;;;;;;;11.30;7.97;;;;;;;18.24;100.00;100356.84;4953847;28;20039;-81
2023/09/18 01:28:57;;;;;;;9.13;7.78;;;;;;;18.25;100.00;100351.47;4941379;29;20038;-80
2023/09/18 01:31:22;;;;;;;10.55;7.60;;;;;;;18.26;100.00;100350.53;4938002;29;20027;-81
2023/09/18 01:33:49;;;;;;;10.13;7.35;;;;;;;18.27;100.00;100344.34;4949164;28;20069;-81
2023/09/18 01:36:16;;;;;;;9.85;7.28;;;;;;;18.28;100.00;100351.25;4953155;28;20042;-81
2023/09/18 01:38:42;;;;;;;9.95;7.22;;;;;;;18.31;100.00;100350.22;4946860;28;20027;-81
2023/09/18 01:41:09;;;;;;;11.98;7.90;;;;;;;18.34;100.00;100345.59;4948766;29;20526;-81
2023/09/18 01:43:35;;;;;;;10.75;7.35;;;;;;;18.35;100.00;100341.19;4951148;28;20038;-80
2023/09/18 01:46:00;;;;;;;11.90;7.32;;;;;;;18.37;100.00;100348.97;4947198;28;20035;-81
2023/09/18 01:48:25;;;;;;;11.75;6.85;;;;;;;18.39;100.00;100357.63;4949519;29;20430;-81
2023/09/18 01:50:50;;;;;;;8.57;6.82;;;;;;;18.40;100.00;100351.41;4948543;29;20030;-81
2023/09/18 01:53:16;;;;;;;8.23;6.68;;;;;;;18.42;100.00;100345.06;4950449;28;20423;-81
2023/09/18 01:55:41;;;;;;;9.15;6.38;;;;;;;18.45;100.00;100351.91;4937956;28;20486;-81
2023/09/18 01:58:06;;;;;;;9.02;6.15;;;;;;;18.45;100.00;100342.25;4944477;29;20026;-80
2023/09/18 02:00:32;;;;;;;8.35;5.90;;;;;;;18.47;100.00;100334.22;4947473;29;20742;-80
2023/09/18 02:02:57;;;;;;;9.77;6.00;;;;;;;18.48;100.00;100341.19;4941680;29;20042;-81
2023/09/18 02:05:23;;;;;;;7.22;5.68;;;;;;;18.50;100.00;100339.28;4945240;28;20038;-81
2023/09/18 02:07:48;;;;;;;11.00;6.22;;;;;;;18.49;100.00;100338.47;4940563;29;20027;-80
2023/09/18 02:10:14;;;;;;;10.32;5.80;;;;;;;18.50;100.00;100334.88;4945676;28;20443;-80
2023/09/18 02:12:39;;;;;;;7.40;5.65;;;;;;;18.51;100.00;100330.44;4943551;29;20027;-80
2023/09/18 02:15:06;;;;;;;6.78;5.63;;;;;;;18.52;100.00;100333.94;4943150;28;20097;-81
2023/09/18 02:17:32;;;;;;;10.50;5.70;;;;;;;18.53;100.00;100328.56;4941223;29;20028;-80
2023/09/18 02:19:58;;;;;;;9.07;5.75;;;;;;;18.53;100.00;100322.47;4943210;29;20043;-81
2023/09/18 02:22:23;;;;;;;8.23;5.47;;;;;;;18.53;100.00;100310.13;4942086;28;20031;-81
2023/09/18 02:24:48;;;;;;;8.23;4.95;;;;;;;18.54;100.00;100311.81;4948228;29;20167;-81
2023/09/18 02:27:14;;;;;;;6.72;5.15;;;;;;;18.55;100.00;100302.97;4936131;29;20027;-80
2023/09/18 02:29:39;;;;;;;6.93;5.10;;;;;;;18.56;100.00;100306.41;4936911;29;20031;-80
2023/09/18 02:32:04;;;;;;;6.75;5.07;;;;;;;18.56;100.00;100304.66;4946099;29;20398;-80
2023/09/18 02:34:30;;;;;;;6.82;4.68;;;;;;;18.56;100.00;100296.75;4944098;29;20058;-80
2023/09/18 02:36:55;;;;;;;6.40;4.68;;;;;;;18.58;100.00;100289.59;4941087;28;20019;-80
2023/09/18 02:39:20;;;;;;;8.10;4.72;;;;;;;18.59;100.00;100285.16;4941542;28;20032;-80
2023/09/18 02:41:46;;;;;;;8.38;5.20;;;;;;;18.60;100.00;100278.94;4938872;29;20479;-80
2023/09/18 02:44:11;;;;;;;8.60;4.90;;;;;;;18.61;100.00;100265.66;4950752;28;20521;-80
2023/09/18 02:46:38;;;;;;;9.18;5.03;;;;;;;18.61;100.00;100255.13;4940086;29;20052;-80
2023/09/18 02:49:03;;;;;;;9.02;5.15;;;;;;;18.61;100.00;100241.97;4945531;28;20118;-80
2023/09/18 02:51:31;;;;;;;9.85;4.60;;;;;;;18.61;100.00;100247.22;4943938;28;20606;-80
2023/09/18 02:53:57;;;;;;;6.78;4.57;;;;;;;18.61;100.00;100247.22;4946808;29;20027;-80
2023/09/18 02:56:22;;;;;;;9.80;4.55;;;;;;;18.61;100.00;100241.97;4935351;29;20063;-80
2023/09/18 02:58:47;;;;;;;5.47;4.53;;;;;;;18.61;100.00;100243.72;4939544;29;20106;-81
2023/09/18 03:01:12;;;;;;;10.20;5.07;;;;;;;18.62;100.00;100250.69;4941700;29;20035;-81
2023/09/18 03:03:38;;;;;;;7.97;4.68;;;;;;;18.62;100.00;100259.41;4942582;29;20490;-80
2023/09/18 03:06:04;;;;;;;8.52;4.95;;;;;;;18.62;100.00;100253.31;4947454;28;20067;-80
2023/09/18 03:08:30;;;;;;;7.78;4.80;;;;;;;18.62;100.00;100255.97;4955299;28;20475;-80
2023/09/18 03:10:55;;;;;;;5.95;4.57;;;;;;;18.61;100.00;100241.97;4953987;28;20085;-80
2023/09/18 03:13:21;;;;;;;8.85;5.10;;;;;;;18.60;100.00;100235.00;4943501;28;20041;-81
2023/09/18 03:15:47;;;;;;;6.97;4.82;;;;;;;18.60;100.00;100235.00;4954954;28;20105;-80
2023/09/18 03:18:12;;;;;;;8.73;5.10;;;;;;;18.59;100.00;100248.25;4955049;29;20027;-81
2023/09/18 03:20:38;;;;;;;9.52;4.93;;;;;;;18.58;100.00;100234.25;4955513;28;20094;-81
2023/09/18 03:23:03;;;;;;;7.97;5.15;;;;;;;18.57;100.00;100213.28;4949203;28;20075;-81
2023/09/18 03:25:28;;;;;;;7.03;5.40;;;;;;;18.58;100.00;100210.56;4945989;29;20093;-80
2023/09/18 03:27:56;;;;;;;9.10;4.95;;;;;;;18.56;100.00;100230.88;4955511;28;20039;-81
2023/09/18 03:30:23;;;;;;;9.00;4.70;;;;;;;18.57;100.00;100240.47;4954271;28;20059;-81
2023/09/18 03:32:49;;;;;;;9.15;5.00;;;;;;;18.59;100.00;100227.19;4945779;28;20027;-81
2023/09/18 03:35:18;;;;;;;7.93;4.75;;;;;;;18.60;100.00;100229.72;4955129;28;20094;-81
2023/09/18 03:37:50;;;;;;;8.35;4.68;;;;;;;18.60;100.00;100224.47;4954365;28;20031;-81
2023/09/18 03:40:17;;;;;;;5.82;4.35;;;;;;;18.62;100.00;100237.53;4955803;28;20031;-81
2023/09/18 03:42:43;;;;;;;5.82;4.32;;;;;;;18.63;100.00;100245.31;4955032;28;20039;-81
2023/09/18 03:45:09;;;;;;;8.23;4.65;;;;;;;18.64;100.00;100225.91;4945837;28;20082;-81
2023/09/18 03:47:39;;;;;;;9.30;4.40;;;;;;;18.68;100.00;100217.81;4955021;28;20486;-81
2023/09/18 03:50:06;;;;;;;9.35;4.20;;;;;;;18.68;100.00;100221.28;4947581;28;20035;-81
2023/09/18 03:52:31;;;;;;;8.95;5.00;;;;;;;18.70;100.00;100227.31;4946977;28;20024;-81
2023/09/18 03:54:57;;;;;;;6.68;4.13;;;;;;;18.72;100.00;100232.44;4939239;29;20037;-81
2023/09/18 03:57:22;;;;;;;8.02;3.97;;;;;;;18.75;100.00;100240.97;4944956;29;20059;-80
2023/09/18 03:59:47;;;;;;;7.93;3.85;;;;;;;18.78;100.00;100242.56;4943966;29;20027;-81
2023/09/18 04:02:13;;;;;;;10.38;4.40;;;;;;;18.78;100.00;100242.56;4939692;29;20032;-80
2023/09/18 04:04:38;;;;;;;8.95;4.25;;;;;;;18.79;100.00;100244.22;4944092;29;20042;-80
2023/09/18 04:07:07;;;;;;;9.27;4.35;;;;;;;18.80;100.00;100228.34;4941569;29;20058;-81
2023/09/18 04:09:34;;;;;;;11.20;4.63;;;;;;;18.81;100.00;100211.56;4943817;29;20047;-81
2023/09/18 04:12:00;;;;;;;8.82;4.90;;;;;;;18.82;100.00;100215.03;4951479;29;20050;-81
2023/09/18 04:14:25;;;;;;;10.48;4.50;;;;;;;18.84;100.00;100204.41;4946272;28;20031;-81
2023/09/18 04:16:50;;;;;;;8.23;4.28;;;;;;;18.85;100.00;100208.72;4957522;28;20550;-80
2023/09/18 04:19:16;;;;;;;9.02;4.47;;;;;;;18.87;100.00;100223.47;4941246;29;20035;-81
2023/09/18 04:21:41;;;;;;;9.52;4.88;;;;;;;18.89;100.00;100239.16;4940202;29;20047;-81
2023/09/18 04:24:06;;;;;;;8.38;4.30;;;;;;;18.89;100.00;100240.03;4941787;28;20450;-80
2023/09/18 04:26:33;;;;;;;10.77;4.50;;;;;;;18.89;100.00;100242.66;4947282;29;20043;-81
2023/09/18 04:28:59;;;;;;;12.10;4.70;;;;;;;18.88;100.00;100243.59;4944050;28;20114;-81
2023/09/18 04:31:24;;;;;;;9.75;4.80;;;;;;;18.89;100.00;100242.66;4942886;29;20042;-81
2023/09/18 04:33:50;;;;;;;7.10;4.75;;;;;;;18.88;100.00;100227.78;4950609;28;20031;-80
2023/09/18 04:36:15;;;;;;;8.57;4.63;;;;;;;18.86;100.00;100219.13;4950624;28;20082;-81
2023/09/18 04:38:41;;;;;;;7.32;4.43;;;;;;;18.86;100.00;100207.78;4947302;28;20035;-81
2023/09/18 04:41:10;;;;;;;6.95;4.63;;;;;;;18.85;100.00;100196.38;4947529;29;20039;-81
2023/09/18 04:43:38;;;;;;;7.97;4.35;;;;;;;18.84;100.00;100197.31;4943794;28;20142;-81
2023/09/18 04:46:05;;;;;;;8.00;4.30;;;;;;;18.84;100.00;100186.78;4951328;28;20027;-81
2023/09/18 04:48:31;;;;;;;6.28;4.13;;;;;;;18.84;100.00;100188.59;4948031;28;20451;-82
2023/09/18 04:50:57;;;;;;;6.53;4.25;;;;;;;18.82;100.00;100167.59;4943244;29;20519;-81
2023/09/18 04:53:22;;;;;;;8.82;4.68;;;;;;;18.82;100.00;100172.88;4944964;28;20041;-81
2023/09/18 04:55:50;;;;;;;9.10;4.43;;;;;;;18.83;100.00;100157.91;4939303;29;20034;-81
2023/09/18 04:58:17;;;;;;;7.25;3.75;;;;;;;18.80;100.00;100146.63;4944881;29;20035;-81
2023/09/18 05:00:42;;;;;;;7.55;4.30;;;;;;;18.80;100.00;100140.50;4950175;28;20568;-81
2023/09/18 05:03:10;;;;;;;7.60;4.57;;;;;;;18.79;100.00;100136.19;4941427;28;20051;-81
2023/09/18 05:05:36;;;;;;;6.95;4.18;;;;;;;18.79;100.00;100133.56;4942752;29;20105;-81
2023/09/18 05:08:09;;;;;;;7.72;4.35;;;;;;;18.78;100.00;100143.28;4941166;29;20460;-81
2023/09/18 05:10:35;;;;;;;8.13;4.45;;;;;;;18.76;100.00;100141.69;4943580;28;20030;-81
2023/09/18 05:13:00;;;;;;;8.32;4.45;;;;;;;18.76;100.00;100131.16;4942327;28;20436;-81
2023/09/18 05:15:29;;;;;;;8.45;4.50;;;;;;;18.75;100.00;100140.03;4948787;29;20490;-81
2023/09/18 05:17:57;;;;;;;6.07;4.30;;;;;;;18.73;100.00;100141.91;4943172;29;20050;-81
2023/09/18 05:20:24;;;;;;;9.50;4.88;;;;;;;18.73;100.00;100140.09;4938681;29;20020;-81
2023/09/18 05:22:52;;;;;;;7.53;4.30;;;;;;;18.72;100.00;100154.22;4946820;29;20078;-81
2023/09/18 05:25:18;;;;;;;7.05;4.13;;;;;;;18.71;100.00;100146.44;4947190;29;20412;-81
2023/09/18 05:27:44;;;;;;;6.78;4.15;;;;;;;18.69;100.00;100148.34;4944894;28;20034;-80
2023/09/18 05:30:23;;;;;;;6.82;3.63;;;;;;;18.68;100.00;100139.63;4942206;28;20554;-80
2023/09/18 05:32:48;;;;;;;8.07;4.00;;;;;;;18.66;100.00;100142.34;4950916;28;20030;-80
2023/09/18 05:35:14;;;;;;;5.80;3.70;;;;;;;18.67;100.00;100164.28;4944403;28;20098;-81
2023/09/18 05:37:41;;;;;;;7.43;3.50;;;;;;;18.65;100.00;100159.09;4951830;28;20390;-80
2023/09/18 05:40:11;;;;;;;6.25;3.22;;;;;;;18.64;100.00;100169.75;4952878;29;20035;-80
2023/09/18 05:42:44;;;;;;;6.28;2.85;;;;;;;18.64;100.00;100175.84;4944920;28;20083;-81
2023/09/18 05:45:11;;;;;;;6.00;2.70;;;;;;;18.63;100.00;100179.44;4948386;29;20082;-80
2023/09/18 05:47:37;;;;;;;7.00;2.55;;;;;;;18.64;100.00;100183.75;4942959;29;20035;-80
2023/09/18 05:50:04;;;;;;;4.30;2.00;;;;;;;18.65;100.00;100179.34;4947505;29;20483;-80
2023/09/18 05:52:29;;;;;;;4.68;2.30;;;;;;;18.64;100.00;100181.13;4936777;29;20023;-81
2023/09/18 05:54:54;;;;;;;4.72;2.20;;;;;;;18.65;100.00;100201.25;4941094;29;20054;-81
2023/09/18 05:57:19;;;;;;;5.78;2.00;;;;;;;18.67;100.00;100198.53;4945223;29;20054;-81
2023/09/18 05:59:45;;;;;;;3.53;1.75;;;;;;;18.66;100.00;100192.41;4944510;29;20889;-80
2023/09/18 06:02:10;;;;;;;4.93;1.77;;;;;;;18.68;100.00;100194.09;4939206;28;20039;-81
2023/09/18 06:04:36;;;;;;;3.17;1.70;;;;;;;18.68;100.00;100194.94;4942761;28;20030;-80
2023/09/18 06:07:03;;;;;;;3.42;1.70;;;;;;;18.69;100.00;100201.03;4941607;29;20035;-80
2023/09/18 06:09:28;;;;;;;2.78;1.50;;;;;;;18.68;100.00;100205.50;4946604;29;20023;-81
2023/09/18 06:11:53;;;;;;;3.38;1.70;;;;;;;18.68;100.00;100207.25;4947389;29;20518;-81
2023/09/18 06:14:18;;;;;;;4.05;1.50;;;;;;;18.68;100.00;100225.72;4946776;29;20024;-80
2023/09/18 06:16:44;;;;;;;3.53;1.65;;;;;;;18.66;100.00;100224.00;4942560;29;20031;-80
2023/09/18 06:19:09;;;;;;;3.08;1.60;;;;;;;18.65;100.00;100222.34;4937659;29;20534;-80
2023/09/18 06:21:34;;;;;;;2.70;1.30;;;;;;;18.66;100.00;100239.00;4942805;29;20035;-81
2023/09/18 06:24:00;;;;;;;6.45;1.58;;;;;;;18.65;100.00;100232.88;4942451;28;20027;-81
2023/09/18 06:26:25;;;;;;;2.92;1.70;;;;;;;18.66;100.00;100228.47;4945253;29;20038;-81
2023/09/18 06:28:52;;;;;;;2.60;1.60;;;;;;;18.65;100.00;100229.41;4948592;29;20036;-81
2023/09/18 06:31:18;;;;;;;3.85;1.30;;;;;;;18.64;100.00;100236.44;4949201;29;20035;-81
2023/09/18 06:33:43;;;;;;;3.53;1.30;;;;;;;18.64;100.00;100233.81;4948763;28;20039;-81
2023/09/18 06:36:09;;;;;;;4.53;1.25;;;;;;;18.63;100.00;100240.03;4942837;29;20039;-81
2023/09/18 06:38:34;;;;;;;2.22;1.20;;;;;;;18.62;100.00;100240.97;4942574;29;20034;-81
2023/09/18 06:40:59;;;;;;;4.70;1.50;;;;;;;18.62;100.00;100238.34;4946142;28;20110;-81
2023/09/18 06:43:24;;;;;;;2.67;1.20;;;;;;;18.62;100.00;100230.44;4957535;29;20031;-81
2023/09/18 06:45:50;;;;;;;2.03;1.35;;;;;;;18.61;100.00;100249.88;4950074;29;20035;-81
2023/09/18 06:48:16;;;;;;;2.65;1.30;;;;;;;18.62;100.00;100261.22;4949129;28;20085;-81
2023/09/18 06:50:42;;;;;;;2.65;1.30;;;;;;;18.62;100.00;100259.41;4952120;29;20035;-80
2023/09/18 06:53:07;;;;;;;4.13;1.23;;;;;;;18.64;100.00;100273.34;4944944;28;20631;-83
2023/09/18 06:55:33;;;;;;;2.50;1.13;;;;;;;18.63;100.00;100269.00;4939248;29;20035;-82
2023/09/18 06:57:58;;;;;;;3.10;1.10;;;;;;;18.63;100.00;100266.38;4936257;29;20035;-82
2023/09/18 07:00:24;;;;;;;2.25;1.30;;;;;;;18.64;100.00;100262.78;4937162;29;20386;-84
2023/09/18 07:02:49;;;;;;;2.45;1.20;;;;;;;18.66;100.00;100267.97;4937811;29;20034;-83
2023/09/18 07:05:14;;;;;;;2.97;1.17;;;;;;;18.68;100.00;100273.13;4945574;29;20026;-82
2023/09/18 07:07:40;;;;;;;2.60;1.20;;;;;;;18.69;100.00;100269.56;4940599;29;20043;-81
2023/09/18 07:10:05;;;;;;;4.28;1.02;;;;;;;18.68;100.00;100273.13;4940003;29;20023;-82
2023/09/18 07:12:31;;;;;;;1.67;1.13;;;;;;;18.70;100.00;100271.25;4937843;29;20070;-82
2023/09/18 07:15:04;;;;;;;2.20;1.20;;;;;;;18.69;100.00;100253.75;4938703;29;20038;-82
2023/09/18 07:17:29;;;;;;;2.53;1.30;;;;;;;18.69;100.00;100259.00;4938488;28;20479;-80
2023/09/18 07:19:54;;;;;;;2.72;1.13;;;;;;;18.68;100.00;100268.72;4936956;29;20043;-82
2023/09/18 07:22:19;;;;;;;2.45;1.00;;;;;;;18.69;100.00;100274.81;4937938;29;20125;-82
2023/09/18 07:24:45;;;;;;;3.85;1.27;;;;;;;18.69;100.00;100265.13;4938305;29;20051;-82
2023/09/18 07:27:11;;;;;;;1.90;1.10;;;;;;;18.68;100.00;100274.00;4942443;29;20110;-81
2023/09/18 07:29:36;;;;;;;2.50;1.25;;;;;;;18.66;100.00;100276.72;4947988;29;20031;-82
2023/09/18 07:32:01;;;;;;;1.67;1.00;;;;;;;18.65;100.00;100280.28;4950031;29;20027;-83
2023/09/18 07:34:27;;;;;;;2.58;1.30;;;;;;;18.68;99.93;100289.81;4948234;28;20204;-83
2023/09/18 07:36:55;;;;;;;3.35;1.15;;;;;;;18.68;100.00;100296.84;4947388;29;20046;-83
2023/09/18 07:39:20;;;;;;;2.88;1.20;;;;;;;18.68;100.00;100299.47;4965422;28;20493;-82
2023/09/18 07:41:47;;;;;;;3.42;1.25;;;;;;;18.69;100.00;100304.66;4947173;28;20047;-82
2023/09/18 07:44:12;;;;;;;2.35;1.10;;;;;;;18.69;99.72;100280.09;4948024;28;20023;-82
2023/09/18 07:46:38;;;;;;;5.10;1.13;;;;;;;18.69;99.95;100286.22;4945498;29;20027;-82
2023/09/18 07:49:03;;;;;;;2.65;1.27;;;;;;;18.69;99.49;100288.00;4947204;29;20027;-82
2023/09/18 07:51:29;;;;;;;1.83;1.30;;;;;;;18.66;100.00;100287.25;4949070;29;20539;-81
2023/09/18 07:53:55;;;;;;;3.58;1.30;;;;;;;18.66;99.33;100287.25;4945223;28;20402;-81
2023/09/18 07:56:21;;;;;;;3.35;1.02;;;;;;;18.68;99.68;100296.84;4947585;29;20482;-83
2023/09/18 07:58:46;;;;;;;3.10;1.20;;;;;;;18.69;99.46;100291.50;4947775;29;20026;-83
2023/09/18 08:01:12;;;;;;;2.40;1.10;;;;;;;18.70;99.55;100293.19;4946257;29;20027;-82
2023/09/18 08:03:38;;;;;;;2.00;1.00;;;;;;;18.71;99.01;100283.47;4946587;28;20397;-82
2023/09/18 08:06:04;;;;;;;3.63;1.40;;;;;;;18.73;99.56;100289.47;4945718;29;20159;-83
2023/09/18 08:08:32;;;;;;;3.20;1.17;;;;;;;18.73;98.74;100292.09;4944357;29;20051;-83
2023/09/18 08:10:58;;;;;;;3.05;1.30;;;;;;;18.73;98.83;100298.22;4947530;28;20482;-83
2023/09/18 08:13:24;;;;;;;2.72;1.30;;;;;;;18.75;98.35;100284.94;4946119;29;20023;-81
2023/09/18 08:15:49;;;;;;;4.70;1.20;;;;;;;18.76;98.83;100281.38;4947181;29;20422;-81
2023/09/18 08:18:14;;;;;;;3.17;1.27;;;;;;;18.76;98.17;100287.47;4945980;29;20051;-81
2023/09/18 08:20:43;;;;;;;2.83;1.20;;;;;;;18.77;99.01;100280.41;4947133;29;20019;-82
2023/09/18 08:23:12;;;;;;;2.20;1.20;;;;;;;18.76;98.95;100286.63;4945931;28;20031;-82
2023/09/18 08:25:39;;;;;;;2.92;1.10;;;;;;;18.73;98.17;100295.56;4945888;29;20027;-82
2023/09/18 08:28:06;;;;;;;1.42;1.20;;;;;;;18.72;98.08;100290.41;4945790;28;20034;-83
2023/09/18 08:30:32;;;;;;;2.33;1.40;;;;;;;18.73;97.70;100302.66;4944359;29;20031;-82
2023/09/18 08:32:57;;;;;;;3.70;1.42;;;;;;;18.75;98.28;100313.94;4944640;29;20031;-82
2023/09/18 08:35:22;;;;;;;2.83;1.17;;;;;;;18.76;97.25;100307.72;4945095;29;20031;-82
2023/09/18 08:37:48;;;;;;;2.05;1.10;;;;;;;18.79;97.28;100323.28;4946320;28;20027;-82
2023/09/18 08:40:14;;;;;;;1.63;1.00;;;;;;;18.77;97.14;100325.22;4946084;29;20422;-82
2023/09/18 08:42:44;;;;;;;2.03;1.13;;;;;;;18.78;96.54;100326.91;4945365;28;20451;-82
2023/09/18 08:45:12;;;;;;;2.38;1.15;;;;;;;18.80;97.62;100325.84;4947118;28;20070;-82
2023/09/18 08:47:39;;;;;;;4.95;1.42;;;;;;;18.81;96.46;100334.56;4946900;28;20031;-82
2023/09/18 08:50:07;;;;;;;3.15;1.38;;;;;;;18.81;96.81;100342.47;4942842;29;20373;-80
2023/09/18 08:52:33;;;;;;;3.13;1.17;;;;;;;18.83;96.79;100334.47;4937940;28;20031;-81
2023/09/18 08:55:00;;;;;;;2.47;1.30;;;;;;;18.85;96.43;100338.69;4941731;29;20035;-81
2023/09/18 08:57:27;;;;;;;3.00;1.27;;;;;;;18.83;96.12;100324.78;4943307;28;20106;-82
2023/09/18 08:59:54;;;;;;;1.98;1.10;;;;;;;18.83;96.40;100326.56;4939528;29;20031;-81
2023/09/18 09:02:19;;;;;;;2.33;1.20;;;;;;;18.83;96.20;100334.47;4941996;28;20698;-82
2023/09/18 09:04:44;;;;;;;2.88;1.50;;;;;;;18.82;96.61;100328.34;4941796;28;20055;-82
2023/09/18 09:07:09;;;;;;;1.83;1.27;;;;;;;18.82;95.70;100338.91;4943382;29;20051;-82
2023/09/18 09:09:35;;;;;;;2.53;1.17;;;;;;;18.80;95.60;100338.16;4945765;28;20038;-82
2023/09/18 09:12:00;;;;;;;4.80;1.40;;;;;;;18.80;96.24;100331.09;4944510;28;20168;-82
2023/09/18 09:14:28;;;;;;;3.15;1.40;;;;;;;18.85;95.18;100324.69;4945690;28;20509;-81
2023/09/18 09:16:55;;;;;;;1.92;1.30;;;;;;;18.87;96.74;100323.63;4943457;29;20062;-82
2023/09/18 09:19:29;;;;;;;1.67;1.20;;;;;;;18.91;95.36;100327.72;4943244;29;20343;-82
2023/09/18 09:21:55;;;;;;;3.25;1.50;;;;;;;18.95;95.36;100329.25;4943700;29;20048;-82
2023/09/18 09:24:40;;;;;;;4.05;1.50;;;;;;;19.04;96.63;100326.91;4943228;29;20039;-82
2023/09/18 09:27:06;;;;;;;4.30;1.50;;;;;;;19.10;95.61;100321.22;4941949;29;20397;-81
2023/09/18 09:29:31;;;;;;;4.57;1.48;;;;;;;19.14;95.81;100317.38;4941981;29;20123;-82
2023/09/18 09:32:05;;;;;;;2.53;1.40;;;;;;;19.20;95.36;100332.78;4939820;28;20035;-81
2023/09/18 09:34:31;;;;;;;3.40;1.45;;;;;;;19.26;95.35;100334.16;4941646;29;20055;-81
2023/09/18 09:36:57;;;;;;;3.63;1.85;;;;;;;19.33;96.82;100338.03;4960259;28;20122;-83
2023/09/18 09:39:24;;;;;;;4.25;1.63;;;;;;;19.44;95.70;100342.56;4941347;29;20106;-83
2023/09/18 09:41:51;;;;;;;5.70;1.90;;;;;;;19.50;94.49;100360.56;4955064;28;20043;-84
2023/09/18 09:44:17;;;;;;;6.53;1.90;;;;;;;19.51;94.05;100356.97;4940911;29;20031;-82
2023/09/18 09:46:48;;;;;;;5.70;2.08;;;;;;;19.53;94.19;100357.72;4941736;28;20023;-84
2023/09/18 09:49:15;;;;;;;3.55;1.80;;;;;;;19.58;93.67;100353.91;4943441;28;20083;-83
2023/09/18 09:51:41;;;;;;;3.88;2.10;;;;;;;19.64;93.35;100358.78;4941723;28;20099;-84
2023/09/18 09:54:07;;;;;;;5.38;1.98;;;;;;;19.73;92.25;100360.72;4943129;28;20094;-83
2023/09/18 09:56:53;;;;;;;4.03;2.03;;;;;;;19.79;91.57;100357.66;4940511;28;20434;-83
2023/09/18 09:59:19;;;;;;;3.72;2.00;;;;;;;19.80;89.29;100356.72;4937747;29;20394;-81
2023/09/18 10:01:51;;;;;;;3.20;2.00;;;;;;;19.85;88.92;100354.56;4942738;28;20039;-81
2023/09/18 10:04:18;;;;;;;5.53;2.08;;;;;;;19.87;87.73;100365.06;4941432;29;20059;-82
2023/09/18 10:06:47;;;;;;;5.40;1.83;;;;;;;19.88;86.85;100363.25;4939007;28;20031;-83
2023/09/18 10:09:15;;;;;;;5.22;1.95;;;;;;;19.90;87.57;100367.44;4941816;28;20030;-83
2023/09/18 10:11:44;;;;;;;5.35;1.75;;;;;;;19.94;87.40;100381.28;4938789;28;20026;-81
2023/09/18 10:14:17;;;;;;;3.72;2.08;;;;;;;19.99;86.42;100389.69;4940322;28;20368;-83
2023/09/18 10:16:48;;;;;;;4.32;1.77;;;;;;;20.02;87.40;100392.13;4938602;28;20117;-83
2023/09/18 10:19:21;;;;;;;3.83;1.80;;;;;;;20.04;86.95;100411.34;4942585;28;20373;-83
2023/09/18 10:22:20;;;;;;;3.58;1.83;;;;;;;20.08;88.53;100396.97;4940953;29;20039;-82
2023/09/18 10:24:47;;;;;;;3.38;1.70;;;;;;;20.08;85.79;100404.03;4956281;28;20039;-81
2023/09/18 10:27:14;;;;;;;5.93;2.15;;;;;;;20.08;86.89;100404.88;4940108;29;20398;-84
2023/09/18 10:29:41;;;;;;;3.33;1.80;;;;;;;20.09;87.04;100406.56;4941071;29;20062;-84
2023/09/18 10:32:07;;;;;;;2.63;1.70;;;;;;;20.11;86.08;100390.59;4943201;28;20043;-82
2023/09/18 10:34:34;;;;;;;3.00;1.90;;;;;;;20.12;85.79;100393.16;4941199;28;20147;-82
2023/09/18 10:37:01;;;;;;;4.10;1.85;;;;;;;20.10;85.46;100389.78;4939688;29;20036;-82
2023/09/18 10:39:28;;;;;;;2.95;1.70;;;;;;;20.13;87.33;100384.28;4941552;29;20063;-82
2023/09/18 10:41:58;;;;;;;3.78;1.90;;;;;;;20.18;87.17;100378.63;4940399;28;20066;-82
2023/09/18 10:44:23;;;;;;;5.47;1.90;;;;;;;20.27;87.46;100385.03;4939827;28;20046;-82
2023/09/18 10:46:53;;;;;;;3.20;1.80;;;;;;;20.40;87.44;100385.81;4938795;28;20031;-82
2023/09/18 10:49:19;;;;;;;3.72;1.95;;;;;;;20.50;86.42;100379.81;4938914;29;20505;-82
2023/09/18 10:51:47;;;;;;;3.20;1.70;;;;;;;20.60;86.69;100376.38;4937202;28;20038;-83
2023/09/18 10:54:16;;;;;;;2.97;1.77;;;;;;;20.72;86.54;100368.50;4934657;28;20031;-83
2023/09/18 10:56:42;;;;;;;3.78;1.90;;;;;;;20.82;85.17;100373.94;4936618;29;20082;-81
2023/09/18 10:59:08;;;;;;;4.65;1.90;;;;;;;20.88;85.02;100362.88;4935164;29;20039;-81
2023/09/18 11:01:36;;;;;;;4.10;2.05;;;;;;;20.91;85.93;100355.56;4936215;28;20035;-82
2023/09/18 11:04:07;;;;;;;4.20;1.98;;;;;;;20.90;84.49;100355.69;4936038;28;21391;-82
2023/09/18 11:06:55;;;;;;;4.20;1.90;;;;;;;20.82;85.74;100353.63;4933547;28;21040;-82
2023/09/18 11:09:24;;;;;;;4.90;2.20;;;;;;;20.73;85.19;100355.13;4934026;29;20035;-82
2023/09/18 11:12:03;;;;;;;6.57;1.90;;;;;;;20.67;84.33;100354.78;4933816;29;20031;-82
2023/09/18 11:14:45;;;;;;;3.17;1.85;;;;;;;20.68;84.78;100367.03;4936106;29;20023;-82
2023/09/18 11:17:30;;;;;;;4.25;2.00;;;;;;;20.69;85.20;100361.63;4936226;29;20035;-82